sensor_id;sensor_type;location;lat;lon;timestamp;temperature;humidity
47626;DHT22;33342;45.574;9.252;2023-04-29T00:01:21;18.90;99.90
47626;DHT22;33342;45.574;9.252;2023-04-29T00:03:49;18.90;99.90
47626;DHT22;33342;45.574;9.252;2023-04-29T00:06:17;18.80;99.90
47626;DHT22;33342;45.574;9.252;2023-04-29T00:08:44;18.80;99.90
47626;DHT22;33342;45.574;9.252;2023-04-29T00:11:11;18.80;99.90
47626;DHT22;33342;45.574;9.252;2023-04-29T00:13:38;18.80;99.90
47626;DHT22;33342;45.574;9.252;2023-04-29T00:16:07;18.70;99.90
47626;DHT22;33342;45.574;9.252;2023-04-29T00:18:36;18.80;99.90
47626;DHT22;33342;45.574;9.252;2023-04-29T00:21:03;18.70;99.90
47626;DHT22;33342;45.574;9.252;2023-04-29T00:23:34;18.80;99.90
47626;DHT22;33342;45.574;9.252;2023-04-29T00:26:01;18.80;99.90
47626;DHT22;33342;45.574;9.252;2023-04-29T00:28:28;18.80;99.90
47626;DHT22;33342;45.574;9.252;2023-04-29T00:30:55;18.70;99.90
47626;DHT22;33342;45.574;9.252;2023-04-29T00:33:22;18.70;99.90
47626;DHT22;33342;45.574;9.252;2023-04-29T00:35:50;18.70;99.90
47626;DHT22;33342;45.574;9.252;2023-04-29T00:38:17;18.70;99.90
47626;DHT22;33342;45.574;9.252;2023-04-29T00:40:44;18.70;99.90
47626;DHT22;33342;45.574;9.252;2023-04-29T00:43:11;18.70;99.90
47626;DHT22;33342;45.574;9.252;2023-04-29T00:45:38;18.60;99.90
47626;DHT22;33342;45.574;9.252;2023-04-29T00:48:06;18.60;99.90
47626;DHT22;33342;45.574;9.252;2023-04-29T00:50:33;18.60;99.90
47626;DHT22;33342;45.574;9.252;2023-04-29T00:53:02;18.60;99.90
47626;DHT22;33342;45.574;9.252;2023-04-29T00:55:30;18.50;99.90
47626;DHT22;33342;45.574;9.252;2023-04-29T00:57:58;18.50;99.90
47626;DHT22;33342;45.574;9.252;2023-04-29T01:00:27;18.50;99.90
47626;DHT22;33342;45.574;9.252;2023-04-29T01:02:55;18.50;99.90
47626;DHT22;33342;45.574;9.252;2023-04-29T01:05:23;18.50;99.90
47626;DHT22;33342;45.574;9.252;2023-04-29T01:10:54;18.40;99.90
47626;DHT22;33342;45.574;9.252;2023-04-29T01:13:32;18.40;99.90
47626;DHT22;33342;45.574;9.252;2023-04-29T01:16:10;18.40;99.90
47626;DHT22;33342;45.574;9.252;2023-04-29T01:18:43;18.40;99.90
47626;DHT22;33342;45.574;9.252;2023-04-29T01:21:16;18.40;99.90
47626;DHT22;33342;45.574;9.252;2023-04-29T01:23:43;18.40;99.90
47626;DHT22;33342;45.574;9.252;2023-04-29T01:26:12;18.40;99.90
47626;DHT22;33342;45.574;9.252;2023-04-29T01:29:01;18.30;99.90
47626;DHT22;33342;45.574;9.252;2023-04-29T01:31:43;18.30;99.90
47626;DHT22;33342;45.574;9.252;2023-04-29T01:34:30;18.30;99.90
47626;DHT22;33342;45.574;9.252;2023-04-29T01:37:04;18.30;99.90
47626;DHT22;33342;45.574;9.252;2023-04-29T01:42:47;18.30;99.90
47626;DHT22;33342;45.574;9.252;2023-04-29T01:45:18;18.30;99.90
47626;DHT22;33342;45.574;9.252;2023-04-29T01:47:48;18.20;99.90
47626;DHT22;33342;45.574;9.252;2023-04-29T01:50:16;18.20;99.90
47626;DHT22;33342;45.574;9.252;2023-04-29T01:52:43;18.20;99.90
47626;DHT22;33342;45.574;9.252;2023-04-29T01:55:11;18.20;99.90
47626;DHT22;33342;45.574;9.252;2023-04-29T01:57:46;18.20;99.90
47626;DHT22;33342;45.574;9.252;2023-04-29T02:00:43;18.20;99.90
47626;DHT22;33342;45.574;9.252;2023-04-29T02:03:10;18.20;99.90
47626;DHT22;33342;45.574;9.252;2023-04-29T02:05:41;18.10;99.90
47626;DHT22;33342;45.574;9.252;2023-04-29T02:08:08;18.20;99.90
47626;DHT22;33342;45.574;9.252;2023-04-29T02:10:40;18.10;99.90
47626;DHT22;33342;45.574;9.252;2023-04-29T02:13:17;18.10;99.90
47626;DHT22;33342;45.574;9.252;2023-04-29T02:15:45;18.00;99.90
47626;DHT22;33342;45.574;9.252;2023-04-29T02:18:12;18.10;99.90
47626;DHT22;33342;45.574;9.252;2023-04-29T02:20:40;18.10;99.90
47626;DHT22;33342;45.574;9.252;2023-04-29T02:23:07;18.10;99.90
47626;DHT22;33342;45.574;9.252;2023-04-29T02:25:35;18.10;99.90
47626;DHT22;33342;45.574;9.252;2023-04-29T02:28:02;18.20;99.90
47626;DHT22;33342;45.574;9.252;2023-04-29T02:30:29;18.20;99.90
47626;DHT22;33342;45.574;9.252;2023-04-29T02:32:56;18.20;99.90
47626;DHT22;33342;45.574;9.252;2023-04-29T02:35:23;18.20;99.90
47626;DHT22;33342;45.574;9.252;2023-04-29T02:37:50;18.10;99.90
47626;DHT22;33342;45.574;9.252;2023-04-29T02:40:18;18.10;99.90
47626;DHT22;33342;45.574;9.252;2023-04-29T02:42:45;18.10;99.90
47626;DHT22;33342;45.574;9.252;2023-04-29T02:45:12;18.10;99.90
47626;DHT22;33342;45.574;9.252;2023-04-29T02:47:39;18.10;99.90
47626;DHT22;33342;45.574;9.252;2023-04-29T02:50:06;18.10;99.90
47626;DHT22;33342;45.574;9.252;2023-04-29T02:52:33;18.10;99.90
47626;DHT22;33342;45.574;9.252;2023-04-29T02:55:00;18.20;99.90
47626;DHT22;33342;45.574;9.252;2023-04-29T02:57:28;18.20;99.90
47626;DHT22;33342;45.574;9.252;2023-04-29T02:59:59;18.20;99.90
47626;DHT22;33342;45.574;9.252;2023-04-29T03:02:26;18.20;99.90
47626;DHT22;33342;45.574;9.252;2023-04-29T03:04:57;18.10;99.90
47626;DHT22;33342;45.574;9.252;2023-04-29T03:07:24;18.20;99.90
47626;DHT22;33342;45.574;9.252;2023-04-29T03:09:51;18.20;99.90
47626;DHT22;33342;45.574;9.252;2023-04-29T03:12:19;18.20;99.90
47626;DHT22;33342;45.574;9.252;2023-04-29T03:14:49;18.20;99.90
47626;DHT22;33342;45.574;9.252;2023-04-29T03:17:16;18.10;99.90
47626;DHT22;33342;45.574;9.252;2023-04-29T03:19:43;18.00;99.90
47626;DHT22;33342;45.574;9.252;2023-04-29T03:22:12;18.00;99.90
47626;DHT22;33342;45.574;9.252;2023-04-29T03:24:41;18.10;99.90
47626;DHT22;33342;45.574;9.252;2023-04-29T03:27:09;18.10;99.90
47626;DHT22;33342;45.574;9.252;2023-04-29T03:29:37;18.10;99.90
47626;DHT22;33342;45.574;9.252;2023-04-29T03:32:04;18.10;99.90
47626;DHT22;33342;45.574;9.252;2023-04-29T03:34:31;18.10;99.90
47626;DHT22;33342;45.574;9.252;2023-04-29T03:37:14;18.10;99.90
47626;DHT22;33342;45.574;9.252;2023-04-29T03:39:50;18.10;99.90
47626;DHT22;33342;45.574;9.252;2023-04-29T03:42:17;18.10;99.90
47626;DHT22;33342;45.574;9.252;2023-04-29T03:44:44;18.10;99.90
47626;DHT22;33342;45.574;9.252;2023-04-29T03:47:11;18.10;99.90
47626;DHT22;33342;45.574;9.252;2023-04-29T03:49:39;18.10;99.90
47626;DHT22;33342;45.574;9.252;2023-04-29T03:52:07;18.10;99.90
47626;DHT22;33342;45.574;9.252;2023-04-29T03:54:34;18.00;99.90
47626;DHT22;33342;45.574;9.252;2023-04-29T03:57:01;18.00;99.90
47626;DHT22;33342;45.574;9.252;2023-04-29T03:59:30;18.00;99.90
47626;DHT22;33342;45.574;9.252;2023-04-29T04:01:57;18.00;99.90
47626;DHT22;33342;45.574;9.252;2023-04-29T04:04:24;18.00;99.90
47626;DHT22;33342;45.574;9.252;2023-04-29T04:06:52;18.00;99.90
47626;DHT22;33342;45.574;9.252;2023-04-29T04:09:24;18.00;99.90
47626;DHT22;33342;45.574;9.252;2023-04-29T04:11:51;17.90;99.90
47626;DHT22;33342;45.574;9.252;2023-04-29T04:14:19;17.90;99.90
47626;DHT22;33342;45.574;9.252;2023-04-29T04:16:46;18.00;99.90
47626;DHT22;33342;45.574;9.252;2023-04-29T04:19:13;18.00;99.90
47626;DHT22;33342;45.574;9.252;2023-04-29T04:21:43;18.00;99.90
47626;DHT22;33342;45.574;9.252;2023-04-29T04:24:10;18.00;99.90
47626;DHT22;33342;45.574;9.252;2023-04-29T04:26:37;18.00;99.90
47626;DHT22;33342;45.574;9.252;2023-04-29T04:29:14;18.00;99.90
47626;DHT22;33342;45.574;9.252;2023-04-29T04:31:53;18.10;99.90
47626;DHT22;33342;45.574;9.252;2023-04-29T04:34:22;18.10;99.90
47626;DHT22;33342;45.574;9.252;2023-04-29T04:36:51;18.10;99.90
47626;DHT22;33342;45.574;9.252;2023-04-29T04:39:18;18.10;99.90
47626;DHT22;33342;45.574;9.252;2023-04-29T04:41:45;18.10;99.90
47626;DHT22;33342;45.574;9.252;2023-04-29T04:44:12;18.20;99.90
47626;DHT22;33342;45.574;9.252;2023-04-29T04:47:18;18.20;99.90
47626;DHT22;33342;45.574;9.252;2023-04-29T04:50:08;18.20;99.90
47626;DHT22;33342;45.574;9.252;2023-04-29T04:52:36;18.30;99.90
47626;DHT22;33342;45.574;9.252;2023-04-29T04:55:22;18.30;99.90
47626;DHT22;33342;45.574;9.252;2023-04-29T04:57:50;18.30;99.90
47626;DHT22;33342;45.574;9.252;2023-04-29T05:00:17;18.30;99.90
47626;DHT22;33342;45.574;9.252;2023-04-29T05:02:45;18.30;99.90
47626;DHT22;33342;45.574;9.252;2023-04-29T05:05:12;18.30;99.90
47626;DHT22;33342;45.574;9.252;2023-04-29T05:07:41;18.40;99.90
47626;DHT22;33342;45.574;9.252;2023-04-29T05:10:08;18.30;99.90
47626;DHT22;33342;45.574;9.252;2023-04-29T05:12:44;18.30;99.90
47626;DHT22;33342;45.574;9.252;2023-04-29T05:15:11;18.40;99.90
47626;DHT22;33342;45.574;9.252;2023-04-29T05:17:41;18.40;99.90
47626;DHT22;33342;45.574;9.252;2023-04-29T05:20:08;18.40;99.90
47626;DHT22;33342;45.574;9.252;2023-04-29T05:22:35;18.40;99.90
47626;DHT22;33342;45.574;9.252;2023-04-29T05:25:03;18.40;99.90
47626;DHT22;33342;45.574;9.252;2023-04-29T05:27:33;18.40;99.90
47626;DHT22;33342;45.574;9.252;2023-04-29T05:30:02;18.40;99.90
47626;DHT22;33342;45.574;9.252;2023-04-29T05:32:29;18.40;99.90
47626;DHT22;33342;45.574;9.252;2023-04-29T05:34:56;18.50;99.90
47626;DHT22;33342;45.574;9.252;2023-04-29T05:37:24;18.50;99.90
47626;DHT22;33342;45.574;9.252;2023-04-29T05:40:03;18.50;99.90
47626;DHT22;33342;45.574;9.252;2023-04-29T05:42:32;18.50;99.90
47626;DHT22;33342;45.574;9.252;2023-04-29T05:45:00;18.50;99.90
47626;DHT22;33342;45.574;9.252;2023-04-29T05:47:27;18.50;99.90
47626;DHT22;33342;45.574;9.252;2023-04-29T05:49:54;18.50;99.90
47626;DHT22;33342;45.574;9.252;2023-04-29T05:52:21;18.50;99.90
47626;DHT22;33342;45.574;9.252;2023-04-29T05:54:49;18.50;99.90
47626;DHT22;33342;45.574;9.252;2023-04-29T05:57:16;18.50;99.90
47626;DHT22;33342;45.574;9.252;2023-04-29T05:59:43;18.50;99.90
47626;DHT22;33342;45.574;9.252;2023-04-29T06:02:10;18.40;99.90
47626;DHT22;33342;45.574;9.252;2023-04-29T06:04:39;18.40;99.90
47626;DHT22;33342;45.574;9.252;2023-04-29T06:07:26;18.40;99.90
47626;DHT22;33342;45.574;9.252;2023-04-29T06:09:58;18.40;99.90
47626;DHT22;33342;45.574;9.252;2023-04-29T06:12:26;18.40;99.90
47626;DHT22;33342;45.574;9.252;2023-04-29T06:14:53;18.40;99.90
47626;DHT22;33342;45.574;9.252;2023-04-29T06:17:20;18.30;99.90
47626;DHT22;33342;45.574;9.252;2023-04-29T06:19:47;18.40;99.90
47626;DHT22;33342;45.574;9.252;2023-04-29T06:22:14;18.40;99.90
47626;DHT22;33342;45.574;9.252;2023-04-29T06:24:47;18.30;99.90
47626;DHT22;33342;45.574;9.252;2023-04-29T06:27:24;18.30;99.90
47626;DHT22;33342;45.574;9.252;2023-04-29T06:29:51;18.30;99.90
47626;DHT22;33342;45.574;9.252;2023-04-29T06:32:19;18.30;99.90
47626;DHT22;33342;45.574;9.252;2023-04-29T06:34:46;18.20;99.90
47626;DHT22;33342;45.574;9.252;2023-04-29T06:37:26;18.20;99.90
47626;DHT22;33342;45.574;9.252;2023-04-29T06:40:10;18.20;99.90
47626;DHT22;33342;45.574;9.252;2023-04-29T06:43:13;18.20;99.90
47626;DHT22;33342;45.574;9.252;2023-04-29T06:46:03;18.20;99.90
47626;DHT22;33342;45.574;9.252;2023-04-29T06:48:52;18.20;99.90
47626;DHT22;33342;45.574;9.252;2023-04-29T06:51:19;18.20;99.90
47626;DHT22;33342;45.574;9.252;2023-04-29T06:53:47;18.30;99.90
47626;DHT22;33342;45.574;9.252;2023-04-29T06:56:14;18.20;99.90
47626;DHT22;33342;45.574;9.252;2023-04-29T06:58:43;18.30;99.90
47626;DHT22;33342;45.574;9.252;2023-04-29T07:01:10;18.30;99.90
47626;DHT22;33342;45.574;9.252;2023-04-29T07:03:37;18.30;99.90
47626;DHT22;33342;45.574;9.252;2023-04-29T07:06:04;18.30;99.90
47626;DHT22;33342;45.574;9.252;2023-04-29T07:08:31;18.30;99.90
47626;DHT22;33342;45.574;9.252;2023-04-29T07:10:59;18.30;99.90
47626;DHT22;33342;45.574;9.252;2023-04-29T07:13:26;18.30;99.90
47626;DHT22;33342;45.574;9.252;2023-04-29T07:15:53;18.30;99.90
47626;DHT22;33342;45.574;9.252;2023-04-29T07:18:20;18.30;99.90
47626;DHT22;33342;45.574;9.252;2023-04-29T07:20:47;18.30;99.90
47626;DHT22;33342;45.574;9.252;2023-04-29T07:23:15;18.30;99.90
47626;DHT22;33342;45.574;9.252;2023-04-29T07:25:42;18.30;99.90
47626;DHT22;33342;45.574;9.252;2023-04-29T07:28:09;18.30;99.90
47626;DHT22;33342;45.574;9.252;2023-04-29T07:30:36;18.30;99.90
47626;DHT22;33342;45.574;9.252;2023-04-29T07:33:04;18.30;99.90
47626;DHT22;33342;45.574;9.252;2023-04-29T07:35:31;18.30;99.90
47626;DHT22;33342;45.574;9.252;2023-04-29T07:37:58;18.30;99.90
47626;DHT22;33342;45.574;9.252;2023-04-29T07:40:26;18.30;99.90
47626;DHT22;33342;45.574;9.252;2023-04-29T07:42:56;18.30;99.90
47626;DHT22;33342;45.574;9.252;2023-04-29T07:45:23;18.30;99.90
47626;DHT22;33342;45.574;9.252;2023-04-29T07:47:50;18.30;99.90
47626;DHT22;33342;45.574;9.252;2023-04-29T07:50:17;18.30;99.90
47626;DHT22;33342;45.574;9.252;2023-04-29T07:52:44;18.30;99.90
47626;DHT22;33342;45.574;9.252;2023-04-29T07:55:15;18.40;99.90
47626;DHT22;33342;45.574;9.252;2023-04-29T07:57:42;18.40;99.90
47626;DHT22;33342;45.574;9.252;2023-04-29T08:00:09;18.40;99.90
47626;DHT22;33342;45.574;9.252;2023-04-29T08:02:49;18.50;99.90
47626;DHT22;33342;45.574;9.252;2023-04-29T08:05:17;18.50;99.90
47626;DHT22;33342;45.574;9.252;2023-04-29T08:07:47;18.50;99.90
47626;DHT22;33342;45.574;9.252;2023-04-29T08:10:15;18.50;99.90
47626;DHT22;33342;45.574;9.252;2023-04-29T08:12:46;18.50;99.90
47626;DHT22;33342;45.574;9.252;2023-04-29T08:15:13;18.60;99.90
47626;DHT22;33342;45.574;9.252;2023-04-29T08:17:41;18.70;99.90
47626;DHT22;33342;45.574;9.252;2023-04-29T08:20:09;18.70;99.90
47626;DHT22;33342;45.574;9.252;2023-04-29T08:22:36;18.70;99.90
47626;DHT22;33342;45.574;9.252;2023-04-29T08:25:03;18.80;99.90
47626;DHT22;33342;45.574;9.252;2023-04-29T08:27:31;18.80;99.90
47626;DHT22;33342;45.574;9.252;2023-04-29T08:29:58;18.80;99.90
47626;DHT22;33342;45.574;9.252;2023-04-29T08:32:25;18.80;99.90
47626;DHT22;33342;45.574;9.252;2023-04-29T08:34:52;18.80;99.90
47626;DHT22;33342;45.574;9.252;2023-04-29T08:37:20;18.90;99.90
47626;DHT22;33342;45.574;9.252;2023-04-29T08:39:48;18.90;99.90
47626;DHT22;33342;45.574;9.252;2023-04-29T08:42:16;18.90;99.90
47626;DHT22;33342;45.574;9.252;2023-04-29T08:44:48;18.90;99.90
47626;DHT22;33342;45.574;9.252;2023-04-29T08:47:15;18.90;99.90
47626;DHT22;33342;45.574;9.252;2023-04-29T08:49:42;18.90;99.90
47626;DHT22;33342;45.574;9.252;2023-04-29T08:52:09;18.90;99.90
47626;DHT22;33342;45.574;9.252;2023-04-29T08:54:37;18.90;99.90
47626;DHT22;33342;45.574;9.252;2023-04-29T08:57:05;18.90;99.90
47626;DHT22;33342;45.574;9.252;2023-04-29T08:59:32;19.00;99.90
47626;DHT22;33342;45.574;9.252;2023-04-29T09:01:59;19.00;99.90
47626;DHT22;33342;45.574;9.252;2023-04-29T09:05:26;19.00;99.90
47626;DHT22;33342;45.574;9.252;2023-04-29T09:07:46;19.00;99.90
47626;DHT22;33342;45.574;9.252;2023-04-29T09:10:13;19.10;99.90
47626;DHT22;33342;45.574;9.252;2023-04-29T09:12:41;19.20;99.90
47626;DHT22;33342;45.574;9.252;2023-04-29T09:15:09;19.20;99.90
47626;DHT22;33342;45.574;9.252;2023-04-29T09:17:46;19.10;99.90
47626;DHT22;33342;45.574;9.252;2023-04-29T09:22:58;19.30;99.90
47626;DHT22;33342;45.574;9.252;2023-04-29T09:25:25;19.30;99.90
47626;DHT22;33342;45.574;9.252;2023-04-29T09:27:53;19.30;99.90
47626;DHT22;33342;45.574;9.252;2023-04-29T09:30:21;19.30;99.90
47626;DHT22;33342;45.574;9.252;2023-04-29T09:33:08;19.30;99.90
47626;DHT22;33342;45.574;9.252;2023-04-29T09:35:38;19.30;99.90
47626;DHT22;33342;45.574;9.252;2023-04-29T09:38:11;19.30;99.90
47626;DHT22;33342;45.574;9.252;2023-04-29T09:40:39;19.30;99.90
47626;DHT22;33342;45.574;9.252;2023-04-29T09:43:22;19.40;99.90
47626;DHT22;33342;45.574;9.252;2023-04-29T09:45:49;19.40;99.90
47626;DHT22;33342;45.574;9.252;2023-04-29T09:48:17;19.60;99.90
47626;DHT22;33342;45.574;9.252;2023-04-29T09:50:58;19.60;99.90
47626;DHT22;33342;45.574;9.252;2023-04-29T09:53:28;19.70;99.90
47626;DHT22;33342;45.574;9.252;2023-04-29T09:56:14;19.70;99.90
47626;DHT22;33342;45.574;9.252;2023-04-29T09:58:41;19.80;99.90
47626;DHT22;33342;45.574;9.252;2023-04-29T10:01:08;19.80;99.90
47626;DHT22;33342;45.574;9.252;2023-04-29T10:03:37;19.80;99.90
47626;DHT22;33342;45.574;9.252;2023-04-29T10:06:06;19.70;99.90
47626;DHT22;33342;45.574;9.252;2023-04-29T10:08:33;19.80;99.90
47626;DHT22;33342;45.574;9.252;2023-04-29T10:11:02;19.90;99.90
47626;DHT22;33342;45.574;9.252;2023-04-29T10:13:30;19.90;99.90
47626;DHT22;33342;45.574;9.252;2023-04-29T10:18:37;20.00;99.90
47626;DHT22;33342;45.574;9.252;2023-04-29T10:21:07;20.10;99.90
47626;DHT22;33342;45.574;9.252;2023-04-29T10:23:36;20.10;99.90
47626;DHT22;33342;45.574;9.252;2023-04-29T10:26:04;20.10;99.90
47626;DHT22;33342;45.574;9.252;2023-04-29T10:28:32;20.20;99.90
47626;DHT22;33342;45.574;9.252;2023-04-29T10:31:01;20.30;99.90
47626;DHT22;33342;45.574;9.252;2023-04-29T10:33:31;20.30;99.90
47626;DHT22;33342;45.574;9.252;2023-04-29T10:36:02;20.40;99.90
47626;DHT22;33342;45.574;9.252;2023-04-29T10:38:39;20.40;99.90
47626;DHT22;33342;45.574;9.252;2023-04-29T10:41:24;20.40;99.90
47626;DHT22;33342;45.574;9.252;2023-04-29T10:43:53;20.40;99.90
47626;DHT22;33342;45.574;9.252;2023-04-29T10:46:21;20.50;99.90
47626;DHT22;33342;45.574;9.252;2023-04-29T10:48:50;20.50;99.90
47626;DHT22;33342;45.574;9.252;2023-04-29T10:51:47;20.50;99.90
47626;DHT22;33342;45.574;9.252;2023-04-29T10:54:15;20.60;99.90
47626;DHT22;33342;45.574;9.252;2023-04-29T10:56:52;20.60;99.90
47626;DHT22;33342;45.574;9.252;2023-04-29T10:59:22;20.60;99.90
47626;DHT22;33342;45.574;9.252;2023-04-29T11:02:09;20.60;99.90
47626;DHT22;33342;45.574;9.252;2023-04-29T11:05:06;20.70;99.90
47626;DHT22;33342;45.574;9.252;2023-04-29T11:07:34;20.80;99.90
47626;DHT22;33342;45.574;9.252;2023-04-29T11:10:01;21.00;99.90
47626;DHT22;33342;45.574;9.252;2023-04-29T11:12:28;21.10;99.90
47626;DHT22;33342;45.574;9.252;2023-04-29T11:14:57;21.20;99.90
47626;DHT22;33342;45.574;9.252;2023-04-29T11:17:34;21.30;99.90
47626;DHT22;33342;45.574;9.252;2023-04-29T11:20:04;21.40;99.90
47626;DHT22;33342;45.574;9.252;2023-04-29T11:22:35;21.40;99.90
47626;DHT22;33342;45.574;9.252;2023-04-29T11:25:06;21.50;99.90
47626;DHT22;33342;45.574;9.252;2023-04-29T11:27:37;21.50;99.90
47626;DHT22;33342;45.574;9.252;2023-04-29T11:30:06;21.50;99.90
47626;DHT22;33342;45.574;9.252;2023-04-29T11:32:37;21.60;99.90
47626;DHT22;33342;45.574;9.252;2023-04-29T11:35:11;21.60;99.90
47626;DHT22;33342;45.574;9.252;2023-04-29T11:37:39;21.70;99.90
47626;DHT22;33342;45.574;9.252;2023-04-29T11:40:07;21.70;99.90
47626;DHT22;33342;45.574;9.252;2023-04-29T11:42:36;21.80;99.90
47626;DHT22;33342;45.574;9.252;2023-04-29T11:45:06;21.80;99.90
47626;DHT22;33342;45.574;9.252;2023-04-29T11:47:33;21.90;99.90
47626;DHT22;33342;45.574;9.252;2023-04-29T11:50:05;21.90;99.90
47626;DHT22;33342;45.574;9.252;2023-04-29T11:52:37;21.90;99.90
47626;DHT22;33342;45.574;9.252;2023-04-29T11:55:07;22.00;99.90
47626;DHT22;33342;45.574;9.252;2023-04-29T11:57:35;22.10;99.90
47626;DHT22;33342;45.574;9.252;2023-04-29T12:00:02;22.10;99.90
47626;DHT22;33342;45.574;9.252;2023-04-29T12:02:34;22.10;99.90
47626;DHT22;33342;45.574;9.252;2023-04-29T12:05:06;22.20;99.90
47626;DHT22;33342;45.574;9.252;2023-04-29T12:07:34;22.20;99.90
47626;DHT22;33342;45.574;9.252;2023-04-29T12:10:06;22.30;99.90
47626;DHT22;33342;45.574;9.252;2023-04-29T12:12:33;22.40;99.90
47626;DHT22;33342;45.574;9.252;2023-04-29T12:15:03;22.30;99.90
47626;DHT22;33342;45.574;9.252;2023-04-29T12:17:31;22.30;99.90
47626;DHT22;33342;45.574;9.252;2023-04-29T12:19:58;22.40;99.90
47626;DHT22;33342;45.574;9.252;2023-04-29T12:22:31;22.40;99.90
47626;DHT22;33342;45.574;9.252;2023-04-29T12:24:59;22.40;99.90
47626;DHT22;33342;45.574;9.252;2023-04-29T12:27:28;22.30;99.90
47626;DHT22;33342;45.574;9.252;2023-04-29T12:29:56;22.30;99.90
47626;DHT22;33342;45.574;9.252;2023-04-29T12:32:24;22.40;99.90
47626;DHT22;33342;45.574;9.252;2023-04-29T12:34:51;22.50;99.90
47626;DHT22;33342;45.574;9.252;2023-04-29T12:37:21;22.50;99.90
47626;DHT22;33342;45.574;9.252;2023-04-29T12:39:49;22.50;99.90
47626;DHT22;33342;45.574;9.252;2023-04-29T12:42:17;22.60;99.90
47626;DHT22;33342;45.574;9.252;2023-04-29T12:44:45;22.60;99.90
47626;DHT22;33342;45.574;9.252;2023-04-29T12:47:15;22.60;99.90
47626;DHT22;33342;45.574;9.252;2023-04-29T12:49:44;22.60;99.90
47626;DHT22;33342;45.574;9.252;2023-04-29T12:52:11;22.70;99.90
47626;DHT22;33342;45.574;9.252;2023-04-29T12:54:39;22.80;99.90
47626;DHT22;33342;45.574;9.252;2023-04-29T12:57:10;22.90;99.90
47626;DHT22;33342;45.574;9.252;2023-04-29T12:59:38;23.00;99.90
47626;DHT22;33342;45.574;9.252;2023-04-29T13:02:07;23.00;99.90
47626;DHT22;33342;45.574;9.252;2023-04-29T13:04:34;22.90;99.90
47626;DHT22;33342;45.574;9.252;2023-04-29T13:07:02;22.90;99.90
47626;DHT22;33342;45.574;9.252;2023-04-29T13:09:30;23.00;99.90
47626;DHT22;33342;45.574;9.252;2023-04-29T13:11:57;23.10;99.90
47626;DHT22;33342;45.574;9.252;2023-04-29T13:14:25;23.20;99.90
47626;DHT22;33342;45.574;9.252;2023-04-29T13:16:52;23.20;99.90
47626;DHT22;33342;45.574;9.252;2023-04-29T13:19:19;23.30;99.90
47626;DHT22;33342;45.574;9.252;2023-04-29T13:22:00;23.20;99.90
47626;DHT22;33342;45.574;9.252;2023-04-29T13:24:27;23.30;99.90
47626;DHT22;33342;45.574;9.252;2023-04-29T13:26:54;23.40;99.90
47626;DHT22;33342;45.574;9.252;2023-04-29T13:29:21;23.40;99.90
47626;DHT22;33342;45.574;9.252;2023-04-29T13:31:48;23.50;99.90
47626;DHT22;33342;45.574;9.252;2023-04-29T13:34:15;23.50;99.90
47626;DHT22;33342;45.574;9.252;2023-04-29T13:36:43;23.50;99.90
47626;DHT22;33342;45.574;9.252;2023-04-29T13:39:10;23.60;99.90
47626;DHT22;33342;45.574;9.252;2023-04-29T13:41:37;23.60;99.90
47626;DHT22;33342;45.574;9.252;2023-04-29T13:44:11;23.60;99.90
47626;DHT22;33342;45.574;9.252;2023-04-29T13:46:50;23.70;99.90
47626;DHT22;33342;45.574;9.252;2023-04-29T13:49:18;23.70;99.90
47626;DHT22;33342;45.574;9.252;2023-04-29T13:52:05;23.70;99.90
47626;DHT22;33342;45.574;9.252;2023-04-29T13:54:35;23.70;99.90
47626;DHT22;33342;45.574;9.252;2023-04-29T13:57:23;23.70;99.90
47626;DHT22;33342;45.574;9.252;2023-04-29T14:00:10;23.70;99.90
47626;DHT22;33342;45.574;9.252;2023-04-29T14:02:58;23.70;99.90
47626;DHT22;33342;45.574;9.252;2023-04-29T14:05:26;23.70;99.90
47626;DHT22;33342;45.574;9.252;2023-04-29T14:07:53;23.70;99.90
47626;DHT22;33342;45.574;9.252;2023-04-29T14:10:20;23.70;99.90
47626;DHT22;33342;45.574;9.252;2023-04-29T14:12:48;23.70;99.90
47626;DHT22;33342;45.574;9.252;2023-04-29T14:15:15;23.60;99.90
47626;DHT22;33342;45.574;9.252;2023-04-29T14:17:42;23.60;99.90
47626;DHT22;33342;45.574;9.252;2023-04-29T14:20:09;23.50;99.90
47626;DHT22;33342;45.574;9.252;2023-04-29T14:22:37;23.50;99.90
47626;DHT22;33342;45.574;9.252;2023-04-29T14:25:04;23.50;99.90
47626;DHT22;33342;45.574;9.252;2023-04-29T14:27:31;23.40;99.90
47626;DHT22;33342;45.574;9.252;2023-04-29T14:30:00;23.30;99.90
47626;DHT22;33342;45.574;9.252;2023-04-29T14:32:27;23.20;99.90
47626;DHT22;33342;45.574;9.252;2023-04-29T14:34:54;23.20;99.90
47626;DHT22;33342;45.574;9.252;2023-04-29T14:37:21;23.30;99.90
47626;DHT22;33342;45.574;9.252;2023-04-29T14:39:48;23.30;99.90
47626;DHT22;33342;45.574;9.252;2023-04-29T14:42:15;23.20;99.90
47626;DHT22;33342;45.574;9.252;2023-04-29T14:44:44;23.30;99.90
47626;DHT22;33342;45.574;9.252;2023-04-29T14:47:12;23.30;99.90
47626;DHT22;33342;45.574;9.252;2023-04-29T14:49:39;23.40;99.90
47626;DHT22;33342;45.574;9.252;2023-04-29T14:52:08;23.30;99.90
47626;DHT22;33342;45.574;9.252;2023-04-29T14:54:35;23.40;99.90
47626;DHT22;33342;45.574;9.252;2023-04-29T14:57:02;23.40;99.90
47626;DHT22;33342;45.574;9.252;2023-04-29T14:59:29;23.30;99.90
47626;DHT22;33342;45.574;9.252;2023-04-29T15:01:56;23.30;99.90
47626;DHT22;33342;45.574;9.252;2023-04-29T15:04:23;23.20;99.90
47626;DHT22;33342;45.574;9.252;2023-04-29T15:06:50;23.30;99.90
47626;DHT22;33342;45.574;9.252;2023-04-29T15:09:17;23.30;99.90
47626;DHT22;33342;45.574;9.252;2023-04-29T15:11:44;23.30;99.90
47626;DHT22;33342;45.574;9.252;2023-04-29T15:14:11;23.30;99.90
47626;DHT22;33342;45.574;9.252;2023-04-29T15:16:38;23.30;99.90
47626;DHT22;33342;45.574;9.252;2023-04-29T15:19:05;23.40;99.90
47626;DHT22;33342;45.574;9.252;2023-04-29T15:21:32;23.40;99.90
47626;DHT22;33342;45.574;9.252;2023-04-29T15:24:00;23.40;99.90
47626;DHT22;33342;45.574;9.252;2023-04-29T15:26:27;23.70;99.90
47626;DHT22;33342;45.574;9.252;2023-04-29T15:28:55;24.00;99.90
47626;DHT22;33342;45.574;9.252;2023-04-29T15:31:22;24.30;99.90
47626;DHT22;33342;45.574;9.252;2023-04-29T15:33:53;24.60;99.90
47626;DHT22;33342;45.574;9.252;2023-04-29T15:36:29;25.00;99.90
47626;DHT22;33342;45.574;9.252;2023-04-29T15:38:58;25.60;99.90
47626;DHT22;33342;45.574;9.252;2023-04-29T15:41:25;26.10;99.90
47626;DHT22;33342;45.574;9.252;2023-04-29T15:43:52;26.30;99.90
47626;DHT22;33342;45.574;9.252;2023-04-29T15:46:20;26.50;99.90
47626;DHT22;33342;45.574;9.252;2023-04-29T15:48:47;26.90;99.90
47626;DHT22;33342;45.574;9.252;2023-04-29T15:51:14;27.70;99.90
47626;DHT22;33342;45.574;9.252;2023-04-29T15:53:41;28.50;99.90
47626;DHT22;33342;45.574;9.252;2023-04-29T15:56:11;28.90;99.90
47626;DHT22;33342;45.574;9.252;2023-04-29T15:58:39;28.70;99.90